createdAt,value
2022-10-13T00:01:13.501Z,14.05
2022-10-13T00:03:41.852Z,14.36
2022-10-13T00:06:10.294Z,14.16
2022-10-13T00:08:37.378Z,14.07
2022-10-13T00:11:09.553Z,13.98
2022-10-13T00:13:36.300Z,13.93
2022-10-13T00:16:03.419Z,13.86
2022-10-13T00:18:30.458Z,13.66
2022-10-13T00:21:20.305Z,13.57
2022-10-13T00:24:00.750Z,13.57
2022-10-13T00:26:27.795Z,13.66
2022-10-13T00:29:15.251Z,13.63
2022-10-13T00:31:55.785Z,13.68
2022-10-13T00:34:22.546Z,13.80
2022-10-13T00:36:49.434Z,13.75
2022-10-13T00:39:16.225Z,13.79
2022-10-13T00:41:43.222Z,13.82
2022-10-13T00:44:49.290Z,13.88
2022-10-13T00:47:58.287Z,13.98
2022-10-13T00:50:59.273Z,13.94
2022-10-13T00:54:00.288Z,14.02
2022-10-13T00:56:42.934Z,13.98
2022-10-13T00:59:15.064Z,14.01
2022-10-13T01:01:42.440Z,14.11
2022-10-13T01:04:09.519Z,14.08
2022-10-13T01:06:36.626Z,13.95
2022-10-13T01:09:03.513Z,14.12
2022-10-13T01:11:48.668Z,14.12
2022-10-13T01:14:41.095Z,13.97
2022-10-13T01:17:26.786Z,13.88
2022-10-13T01:20:12.463Z,13.80
2022-10-13T01:23:17.292Z,13.91
2022-10-13T01:26:18.380Z,13.80
2022-10-13T01:29:26.314Z,13.88
2022-10-13T01:31:59.236Z,13.89
2022-10-13T01:34:26.106Z,13.89
2022-10-13T01:36:56.093Z,13.85
2022-10-13T01:39:52.481Z,13.88
2022-10-13T01:42:22.039Z,13.78
2022-10-13T01:45:13.371Z,13.68
2022-10-13T01:48:15.324Z,13.62
2022-10-13T01:50:59.231Z,13.51
2022-10-13T01:53:53.373Z,13.45
2022-10-13T01:56:54.332Z,13.50
2022-10-13T01:59:38.572Z,13.58
2022-10-13T02:02:18.010Z,13.35
2022-10-13T02:04:52.651Z,13.23
2022-10-13T02:07:22.983Z,13.13
2022-10-13T02:09:55.639Z,13.08
2022-10-13T02:12:51.325Z,13.11
2022-10-13T02:15:44.873Z,13.04
2022-10-13T02:18:15.910Z,12.93
2022-10-13T02:20:44.411Z,12.95
2022-10-13T02:23:32.338Z,12.78
2022-10-13T02:26:14.800Z,12.86
2022-10-13T02:28:42.053Z,12.73
2022-10-13T02:31:09.378Z,12.78
2022-10-13T02:33:36.151Z,12.76
2022-10-13T02:36:03.030Z,12.83
2022-10-13T02:38:29.970Z,12.79
2022-10-13T02:40:56.830Z,12.77
2022-10-13T02:43:23.631Z,12.61
2022-10-13T02:46:10.356Z,12.81
2022-10-13T02:49:11.386Z,12.85
2022-10-13T02:51:53.298Z,13.00
2022-10-13T02:54:20.220Z,13.02
2022-10-13T02:57:07.360Z,13.06
2022-10-13T03:00:12.354Z,13.09
2022-10-13T03:03:13.320Z,12.87
2022-10-13T03:05:55.929Z,12.85
2022-10-13T03:08:22.651Z,12.92
2022-10-13T03:10:49.520Z,12.81
2022-10-13T03:13:16.263Z,12.59
2022-10-13T03:15:43.243Z,12.57
2022-10-13T03:18:10.029Z,12.59
2022-10-13T03:20:36.937Z,12.66
2022-10-13T03:23:03.723Z,12.58
2022-10-13T03:25:30.569Z,12.49
2022-10-13T03:27:57.466Z,12.40
2022-10-13T03:30:24.240Z,12.41
2022-10-13T03:32:51.116Z,12.66
2022-10-13T03:35:17.993Z,12.70
2022-10-13T03:37:44.936Z,12.52
2022-10-13T03:40:12.675Z,12.46
2022-10-13T03:42:39.730Z,12.39
2022-10-13T03:45:26.369Z,12.21
2022-10-13T03:48:27.379Z,12.29
2022-10-13T03:51:09.206Z,12.38
2022-10-13T03:53:36.430Z,12.54
2022-10-13T03:56:04.353Z,12.71
2022-10-13T03:58:33.934Z,12.90
2022-10-13T04:01:21.417Z,12.93
2022-10-13T04:04:24.413Z,12.80
2022-10-13T04:07:04.941Z,12.68
2022-10-13T04:09:31.725Z,12.68
2022-10-13T04:11:58.546Z,12.56
2022-10-13T04:14:25.380Z,12.32
2022-10-13T04:16:52.173Z,12.46
2022-10-13T04:19:18.993Z,12.49
2022-10-13T04:21:45.803Z,12.60
2022-10-13T04:24:13.313Z,12.61
2022-10-13T04:26:40.420Z,12.54
2022-10-13T04:29:08.725Z,12.36
2022-10-13T04:31:35.961Z,12.23
2022-10-13T04:34:02.985Z,12.44
2022-10-13T04:36:29.809Z,12.28
2022-10-13T04:38:56.633Z,12.30
2022-10-13T04:41:23.495Z,12.27
2022-10-13T04:44:10.515Z,12.31
2022-10-13T04:47:11.469Z,12.16
2022-10-13T04:49:58.508Z,11.97
2022-10-13T04:52:25.531Z,11.87
2022-10-13T04:54:53.416Z,11.91
2022-10-13T04:57:20.381Z,11.94
2022-10-13T05:00:07.450Z,11.92
2022-10-13T05:03:08.424Z,11.98
2022-10-13T05:05:49.093Z,12.17
2022-10-13T05:08:16.006Z,11.93
2022-10-13T05:10:43.184Z,11.97
2022-10-13T05:13:13.022Z,11.74
2022-10-13T05:15:40.112Z,11.83
2022-10-13T05:18:06.886Z,11.78
2022-10-13T05:20:33.853Z,11.90
2022-10-13T05:23:21.499Z,11.80
2022-10-13T05:26:27.436Z,11.71
2022-10-13T05:29:08.549Z,11.78
2022-10-13T05:31:55.492Z,11.73
2022-10-13T05:34:36.006Z,11.75
2022-10-13T05:37:02.824Z,11.80
2022-10-13T05:39:33.103Z,11.83
2022-10-13T05:42:00.080Z,11.97
2022-10-13T05:44:47.439Z,12.08
2022-10-13T05:47:48.454Z,12.07
2022-10-13T05:50:49.476Z,12.10
2022-10-13T05:53:31.278Z,11.79
2022-10-13T05:56:06.088Z,12.15
2022-10-13T05:58:56.486Z,11.95
2022-10-13T06:01:38.436Z,12.26
2022-10-13T06:04:08.726Z,12.35
2022-10-13T06:06:55.453Z,12.42
2022-10-13T06:09:38.000Z,12.57
2022-10-13T06:12:05.783Z,12.95
2022-10-13T06:14:32.607Z,12.83
2022-10-13T06:17:00.636Z,12.80
2022-10-13T06:19:27.572Z,13.00
2022-10-13T06:21:54.537Z,12.73
2022-10-13T06:24:41.462Z,12.20
2022-10-13T06:27:42.541Z,12.76
2022-10-13T06:30:23.033Z,12.70
2022-10-13T06:33:10.513Z,12.52
2022-10-13T06:35:52.198Z,12.42
2022-10-13T06:38:19.806Z,12.22
2022-10-13T06:41:08.613Z,12.12
2022-10-13T06:44:09.453Z,12.49
2022-10-13T06:47:10.631Z,12.57
2022-10-13T06:49:57.066Z,12.57
2022-10-13T06:52:23.766Z,12.90
2022-10-13T06:54:50.597Z,12.94
2022-10-13T06:57:37.521Z,12.84
2022-10-13T07:00:18.132Z,13.06
2022-10-13T07:02:49.481Z,13.43
2022-10-13T07:05:16.327Z,13.47
2022-10-13T07:07:43.206Z,13.68
2022-10-13T07:10:10.247Z,13.61
2022-10-13T07:12:37.213Z,13.60
2022-10-13T07:15:04.063Z,13.80
2022-10-13T07:17:30.879Z,13.79
2022-10-13T07:19:58.041Z,14.24
2022-10-13T07:22:46.481Z,14.81
2022-10-13T07:25:47.496Z,15.20
2022-10-13T07:28:21.275Z,15.08
2022-10-13T07:30:48.233Z,15.94
2022-10-13T07:33:15.093Z,16.25
2022-10-13T07:35:41.917Z,16.55
2022-10-13T07:38:08.716Z,16.76
2022-10-13T07:40:35.654Z,17.30
2022-10-13T07:43:02.831Z,17.54
2022-10-13T07:45:49.523Z,17.84
2022-10-13T07:48:50.494Z,17.99
2022-10-13T07:51:51.531Z,18.12
2022-10-13T07:54:52.485Z,18.25
2022-10-13T07:57:53.518Z,18.22
2022-10-13T08:00:40.120Z,18.71
2022-10-13T08:03:07.190Z,18.38
2022-10-13T08:05:54.569Z,18.29
2022-10-13T08:08:35.154Z,18.50
2022-10-13T08:11:06.754Z,18.43
2022-10-13T08:13:34.291Z,18.80
2022-10-13T08:16:13.098Z,18.99
2022-10-13T08:18:39.973Z,19.02
2022-10-13T08:21:39.035Z,18.86
2022-10-13T08:23:56.623Z,19.28
2022-10-13T08:26:24.559Z,19.73
2022-10-13T08:29:27.015Z,20.11
2022-10-13T08:32:07.184Z,20.12
2022-10-13T08:34:35.312Z,20.64
2022-10-13T08:37:02.226Z,20.10
2022-10-13T08:39:29.306Z,20.32
2022-10-13T08:41:57.913Z,20.00
2022-10-13T08:45:16.106Z,19.97
2022-10-13T08:48:26.646Z,20.64
2022-10-13T08:50:55.576Z,20.18
2022-10-13T08:53:28.412Z,20.99
2022-10-13T08:55:57.517Z,21.59
2022-10-13T08:58:46.541Z,21.68
2022-10-13T09:01:48.578Z,21.43
2022-10-13T09:04:29.519Z,21.74
2022-10-13T09:06:58.891Z,21.93
2022-10-13T09:09:25.860Z,22.35
2022-10-13T09:11:52.890Z,22.64
2022-10-13T09:14:31.391Z,23.02
2022-10-13T09:19:40.957Z,22.24
2022-10-13T09:22:34.582Z,22.62
2022-10-13T09:25:07.568Z,23.00
2022-10-13T09:27:46.726Z,23.21
2022-10-13T09:30:42.573Z,22.66
2022-10-13T09:33:24.091Z,22.65
2022-10-13T09:35:51.001Z,22.96
2022-10-13T09:38:20.132Z,23.31
2022-10-13T09:41:10.135Z,23.42
2022-10-13T09:43:57.598Z,22.39
2022-10-13T09:46:47.880Z,22.67
2022-10-13T09:49:20.783Z,22.63
2022-10-13T09:51:48.283Z,22.69
2022-10-13T09:54:33.687Z,22.95
2022-10-13T09:57:27.588Z,23.33
2022-10-13T10:00:34.585Z,23.75
2022-10-13T10:03:22.238Z,23.66
2022-10-13T10:05:52.095Z,23.44
2022-10-13T10:08:44.735Z,23.52
2022-10-13T10:11:41.424Z,23.55
2022-10-13T10:14:17.320Z,23.77
2022-10-13T10:16:46.647Z,23.46
2022-10-13T10:19:33.899Z,23.52
2022-10-13T10:22:04.319Z,24.16
2022-10-13T10:24:45.413Z,23.96
2022-10-13T10:27:28.721Z,24.23
2022-10-13T10:29:57.722Z,22.12
2022-10-13T10:32:43.143Z,22.22
2022-10-13T10:35:49.680Z,20.82
2022-10-13T10:38:30.003Z,20.77
2022-10-13T10:41:05.177Z,20.77
2022-10-13T10:43:48.620Z,21.30
2022-10-13T10:46:45.750Z,21.66
2022-10-13T10:49:18.705Z,22.08
2022-10-13T10:51:46.334Z,22.71
2022-10-13T10:54:20.288Z,22.59
2022-10-13T10:57:10.646Z,21.25
2022-10-13T11:03:14.693Z,22.41
2022-10-13T11:06:01.116Z,20.99
2022-10-13T11:08:40.661Z,21.02
2022-10-13T11:11:25.102Z,20.83
2022-10-13T11:13:57.923Z,21.07
2022-10-13T11:16:27.335Z,20.85
2022-10-13T11:18:54.076Z,21.48
2022-10-13T11:21:21.343Z,21.77
2022-10-13T11:24:08.643Z,21.58
2022-10-13T11:27:09.762Z,21.34
2022-10-13T11:29:58.000Z,21.31
2022-10-13T11:32:28.095Z,21.43
2022-10-13T11:34:59.543Z,21.30
2022-10-13T11:37:32.426Z,21.16
2022-10-13T11:40:35.319Z,21.26
2022-10-13T11:43:14.151Z,21.80
2022-10-13T11:46:19.683Z,22.49
2022-10-13T11:49:23.724Z,22.15
2022-10-13T11:52:33.674Z,21.69
2022-10-13T11:55:45.660Z,21.46
2022-10-13T11:58:46.683Z,21.63
2022-10-13T12:01:27.247Z,21.39
2022-10-13T12:03:54.646Z,21.85
2022-10-13T12:06:21.383Z,22.40
2022-10-13T12:08:49.753Z,22.23
2022-10-13T12:11:27.822Z,21.98
2022-10-13T12:13:55.288Z,22.98
2022-10-13T12:16:22.204Z,23.46
2022-10-13T12:18:50.298Z,22.73
2022-10-13T12:21:21.461Z,22.56
2022-10-13T12:24:18.697Z,23.22
2022-10-13T12:27:33.699Z,22.89
2022-10-13T12:30:31.446Z,22.41
2022-10-13T12:32:59.612Z,22.34
2022-10-13T12:35:28.663Z,22.29
2022-10-13T12:37:57.110Z,22.59
2022-10-13T12:40:24.199Z,23.11
2022-10-13T12:42:51.208Z,23.44
2022-10-13T12:45:41.751Z,23.78
2022-10-13T12:48:47.721Z,23.23
2022-10-13T12:51:50.722Z,22.44
2022-10-13T12:54:52.686Z,22.01
2022-10-13T12:57:53.737Z,22.55
2022-10-13T13:00:34.406Z,22.80
2022-10-13T13:03:06.648Z,22.41
2022-10-13T13:05:45.796Z,22.20
2022-10-13T13:08:24.172Z,21.91
2022-10-13T13:11:01.473Z,22.36
2022-10-13T13:13:29.022Z,22.98
2022-10-13T13:16:16.079Z,23.50
2022-10-13T13:18:44.293Z,23.87
2022-10-13T13:21:32.689Z,24.22
2022-10-13T13:24:40.276Z,24.36
2022-10-13T13:27:45.716Z,24.70
2022-10-13T13:30:26.318Z,24.55
2022-10-13T13:32:53.124Z,24.61
2022-10-13T13:35:20.022Z,24.44
2022-10-13T13:38:06.728Z,24.79
2022-10-13T13:40:47.264Z,24.45
2022-10-13T13:43:14.002Z,24.46
2022-10-13T13:46:00.750Z,24.34
2022-10-13T13:49:01.741Z,24.54
2022-10-13T13:52:02.749Z,24.32
2022-10-13T13:55:03.791Z,24.37
2022-10-13T13:57:44.577Z,24.30
2022-10-13T14:00:12.611Z,24.02
2022-10-13T14:02:40.659Z,23.66
2022-10-13T14:05:07.835Z,23.45
2022-10-13T14:07:34.745Z,23.44
2022-10-13T14:10:02.424Z,23.57
2022-10-13T14:12:30.771Z,23.24
2022-10-13T14:15:17.750Z,23.25
2022-10-13T14:17:58.501Z,22.80
2022-10-13T14:20:25.596Z,22.93
2022-10-13T14:22:52.521Z,22.91
2022-10-13T14:25:39.771Z,23.05
2022-10-13T14:28:20.252Z,23.10
2022-10-13T14:30:47.046Z,23.11
2022-10-13T14:33:14.052Z,23.17
2022-10-13T14:35:40.827Z,23.04
2022-10-13T14:38:28.792Z,23.07
2022-10-13T14:41:29.821Z,23.12
2022-10-13T14:44:30.781Z,23.17
2022-10-13T14:47:31.781Z,23.17
2022-10-13T14:50:12.336Z,22.95
2022-10-13T14:52:59.914Z,22.90
2022-10-13T14:55:40.369Z,22.92
2022-10-13T14:58:07.271Z,22.77
2022-10-13T15:00:34.518Z,22.72
2022-10-13T15:03:02.074Z,22.60
2022-10-13T15:05:48.792Z,22.78
2022-10-13T15:08:30.339Z,22.67
2022-10-13T15:11:01.208Z,22.68
2022-10-13T15:13:28.211Z,22.49
2022-10-13T15:16:10.818Z,22.44
2022-10-13T15:18:51.350Z,22.44
2022-10-13T15:21:18.257Z,22.36
2022-10-13T15:23:45.258Z,22.37
2022-10-13T15:26:33.824Z,22.28
2022-10-13T15:29:14.231Z,22.33
2022-10-13T15:31:41.131Z,22.17
2022-10-13T15:34:08.006Z,22.04
2022-10-13T15:36:35.281Z,22.07
2022-10-13T15:39:23.829Z,21.88
2022-10-13T15:42:24.844Z,21.96
2022-10-13T15:45:25.816Z,21.99
2022-10-13T15:48:26.812Z,21.77
2022-10-13T15:51:28.858Z,21.75
2022-10-13T15:54:23.055Z,21.66
2022-10-13T15:57:03.783Z,21.31
2022-10-13T15:59:30.854Z,21.19
2022-10-13T16:01:57.940Z,21.04
2022-10-13T16:04:24.786Z,21.00
2022-10-13T16:06:51.566Z,20.93
2022-10-13T16:09:18.403Z,20.83
2022-10-13T16:11:45.429Z,20.69
2022-10-13T16:14:12.295Z,20.68
2022-10-13T16:16:39.241Z,20.61
2022-10-13T16:19:06.118Z,20.55
2022-10-13T16:21:53.862Z,20.50
2022-10-13T16:24:34.351Z,20.35
2022-10-13T16:27:01.632Z,20.23
2022-10-13T16:29:29.775Z,20.15
2022-10-13T16:31:56.523Z,19.96
2022-10-13T16:34:23.323Z,19.87
2022-10-13T16:36:50.666Z,19.83
2022-10-13T16:39:17.635Z,19.79
2022-10-13T16:41:44.368Z,19.68
2022-10-13T16:44:31.865Z,19.51
2022-10-13T16:47:32.871Z,19.21
2022-10-13T16:50:13.384Z,19.09
2022-10-13T16:53:00.854Z,19.11
2022-10-13T16:56:01.846Z,18.70
2022-10-13T16:58:45.336Z,18.50
2022-10-13T17:01:33.172Z,18.33
2022-10-13T17:04:33.896Z,18.38
2022-10-13T17:07:35.003Z,18.34
2022-10-13T17:10:15.614Z,18.28
2022-10-13T17:12:42.396Z,18.07
2022-10-13T17:15:09.641Z,17.90
2022-10-13T17:17:39.576Z,17.91
2022-10-13T17:20:06.550Z,17.86
2022-10-13T17:22:34.150Z,17.92
2022-10-13T17:25:01.052Z,17.92
2022-10-13T17:27:28.219Z,17.86
2022-10-13T17:29:55.027Z,17.86
2022-10-13T17:32:22.216Z,17.95
2022-10-13T17:34:48.959Z,17.98
2022-10-13T17:37:15.812Z,17.95
2022-10-13T17:39:42.538Z,18.04
2022-10-13T17:42:09.395Z,17.85
2022-10-13T17:44:56.915Z,17.84
2022-10-13T17:47:37.288Z,17.92
2022-10-13T17:50:04.126Z,17.95
2022-10-13T17:52:50.930Z,17.82
2022-10-13T17:55:51.992Z,17.86
2022-10-13T17:58:53.934Z,18.06
2022-10-13T18:01:54.967Z,18.14
2022-10-13T18:04:55.943Z,18.12
2022-10-13T18:07:56.943Z,18.18
2022-10-13T18:11:03.515Z,18.16
2022-10-13T18:13:23.644Z,18.01
2022-10-13T18:15:50.503Z,17.77
2022-10-13T18:18:17.316Z,17.70
2022-10-13T18:20:44.151Z,17.67
2022-10-13T18:23:10.997Z,17.76
2022-10-13T18:25:39.400Z,17.78
2022-10-13T18:28:06.296Z,17.95
2022-10-13T18:30:33.546Z,17.81
2022-10-13T18:33:00.487Z,17.76
2022-10-13T18:35:32.248Z,17.42
2022-10-13T18:37:59.310Z,17.30
2022-10-13T18:40:28.539Z,17.22
2022-10-13T18:43:09.174Z,17.06
2022-10-13T18:46:13.969Z,16.84
2022-10-13T18:48:54.918Z,16.86
2022-10-13T18:51:41.949Z,16.85
2022-10-13T18:54:42.956Z,16.71
2022-10-13T18:57:38.130Z,16.69
2022-10-13T19:00:06.836Z,16.64
2022-10-13T19:02:53.991Z,16.64
2022-10-13T19:05:39.150Z,16.52
2022-10-13T19:08:25.956Z,16.52
2022-10-13T19:11:10.521Z,16.95
2022-10-13T19:13:37.295Z,16.94
2022-10-13T19:16:04.419Z,16.68
2022-10-13T19:18:31.299Z,16.65
2022-10-13T19:20:58.313Z,16.70
2022-10-13T19:23:44.976Z,16.80
2022-10-13T19:26:29.837Z,16.62
2022-10-13T19:29:03.475Z,16.29
2022-10-13T19:31:31.256Z,16.22
2022-10-13T19:33:59.406Z,16.28
2022-10-13T19:36:34.171Z,16.14
2022-10-13T19:39:02.243Z,16.24
2022-10-13T19:41:30.833Z,16.21
2022-10-13T19:44:17.983Z,16.02
2022-10-13T19:46:58.690Z,15.89
2022-10-13T19:49:26.531Z,15.82
2022-10-13T19:52:13.951Z,15.77
2022-10-13T19:55:14.996Z,15.70
2022-10-13T19:58:17.959Z,15.59
2022-10-13T20:01:20.121Z,15.46
2022-10-13T20:04:20.981Z,15.50
2022-10-13T20:07:01.466Z,15.69
2022-10-13T20:09:48.983Z,15.76
2022-10-13T20:12:29.633Z,15.59
2022-10-13T20:14:56.538Z,15.55
2022-10-13T20:17:23.600Z,15.53
2022-10-13T20:19:50.660Z,15.34
2022-10-13T20:22:17.514Z,15.28
2022-10-13T20:25:05.058Z,15.54
2022-10-13T20:27:49.088Z,15.76
2022-10-13T20:30:35.966Z,15.77
2022-10-13T20:33:16.546Z,15.57
2022-10-13T20:35:43.605Z,15.48
2022-10-13T20:38:31.034Z,15.33
2022-10-13T20:41:17.801Z,15.17
2022-10-13T20:44:05.014Z,15.05
2022-10-13T20:47:06.008Z,15.05
2022-10-13T20:50:06.994Z,15.14
2022-10-13T20:52:47.498Z,15.10
2022-10-13T20:55:14.368Z,15.18
2022-10-13T20:57:41.463Z,15.36
2022-10-13T21:00:08.702Z,15.38
2022-10-13T21:02:58.821Z,15.26
2022-10-13T21:06:03.054Z,14.91
2022-10-13T21:09:04.002Z,15.06
2022-10-13T21:11:46.494Z,15.26
2022-10-13T21:14:13.326Z,15.23
2022-10-13T21:17:00.015Z,14.88
2022-10-13T21:19:40.459Z,14.87
2022-10-13T21:22:07.319Z,14.48
2022-10-13T21:24:34.156Z,14.92
2022-10-13T21:27:01.131Z,14.87
2022-10-13T21:29:27.906Z,14.87
2022-10-13T21:31:54.699Z,15.08
2022-10-13T21:34:21.506Z,15.11
2022-10-13T21:37:08.074Z,15.21
2022-10-13T21:39:49.310Z,15.07
2022-10-13T21:42:16.454Z,14.89
2022-10-13T21:45:03.078Z,14.70
2022-10-13T21:47:43.490Z,14.73
2022-10-13T21:50:10.363Z,14.70
2022-10-13T21:52:37.349Z,14.58
2022-10-13T21:55:24.032Z,14.46
2022-10-13T21:58:05.477Z,14.47
2022-10-13T22:00:32.926Z,14.36
2022-10-13T22:02:59.760Z,14.46
2022-10-13T22:05:26.821Z,14.51
2022-10-13T22:08:10.068Z,14.47
2022-10-13T22:11:11.064Z,14.45
2022-10-13T22:14:12.057Z,14.50
2022-10-13T22:16:47.013Z,14.64
2022-10-13T22:19:19.889Z,14.59
2022-10-13T22:21:51.103Z,14.67
2022-10-13T22:24:38.091Z,14.74
2022-10-13T22:27:39.073Z,14.73
2022-10-13T22:30:19.421Z,14.78
2022-10-13T22:32:46.212Z,14.75
2022-10-13T22:35:12.961Z,14.69
2022-10-13T22:38:00.061Z,14.61
2022-10-13T22:41:01.042Z,14.68
2022-10-13T22:44:06.100Z,14.51
2022-10-13T22:46:48.502Z,14.36
2022-10-13T22:49:15.262Z,14.17
2022-10-13T22:51:42.151Z,13.99
2022-10-13T22:54:09.590Z,13.91
2022-10-13T22:56:36.554Z,13.81
2022-10-13T22:59:25.078Z,13.67
2022-10-13T23:02:26.086Z,13.72
2022-10-13T23:05:06.639Z,13.40
2022-10-13T23:07:33.491Z,13.41
2022-10-13T23:10:20.096Z,13.46
2022-10-13T23:13:00.623Z,13.68
2022-10-13T23:15:27.472Z,13.81
2022-10-13T23:17:54.244Z,13.93
2022-10-13T23:20:21.007Z,13.77
2022-10-13T23:22:47.777Z,13.64
2022-10-13T23:25:14.711Z,13.57
2022-10-13T23:27:41.514Z,13.43
2022-10-13T23:30:28.091Z,13.42
2022-10-13T23:33:29.148Z,13.33
2022-10-13T23:36:31.073Z,13.34
2022-10-13T23:39:14.548Z,13.31
2022-10-13T23:41:41.305Z,13.36
2022-10-13T23:44:28.103Z,13.48
2022-10-13T23:47:08.618Z,13.54
2022-10-13T23:49:35.423Z,13.41
2022-10-13T23:52:03.569Z,13.35
2022-10-13T23:54:32.917Z,13.05
2022-10-13T23:56:59.816Z,12.97
2022-10-13T23:59:26.513Z,13.05
